createdAt,value
2023-11-04T00:01:07.635Z,97849.97
2023-11-04T00:03:45.679Z,97855.47
2023-11-04T00:06:16.619Z,97853.34
2023-11-04T00:08:44.073Z,97866.75
2023-11-04T00:11:12.180Z,97858.91
2023-11-04T00:13:40.319Z,97872.00
2023-11-04T00:16:08.965Z,97883.72
2023-11-04T00:18:37.260Z,97887.81
2023-11-04T00:21:07.526Z,97895.91
2023-11-04T00:23:35.229Z,97896.88
2023-11-04T00:26:03.270Z,97902.88
2023-11-04T00:28:31.316Z,97905.09
2023-11-04T00:30:59.542Z,97915.63
2023-11-04T00:33:28.325Z,97929.28
2023-11-04T00:35:56.203Z,97919.59
2023-11-04T00:38:25.671Z,97919.97
2023-11-04T00:40:54.289Z,97923.75
2023-11-04T00:43:22.403Z,97928.09
2023-11-04T00:45:49.877Z,97930.97
2023-11-04T00:48:17.584Z,97934.00
2023-11-04T00:50:45.132Z,97947.88
2023-11-04T00:53:12.675Z,97949.63
2023-11-04T00:55:42.162Z,97953.97
2023-11-04T00:58:10.852Z,97959.81
2023-11-04T01:00:38.922Z,97952.59
2023-11-04T01:03:07.075Z,97955.75
2023-11-04T01:05:34.598Z,97968.88
2023-11-04T01:08:03.259Z,97961.69
2023-11-04T01:10:31.394Z,97970.34
2023-11-04T01:13:00.368Z,97976.34
2023-11-04T01:15:28.581Z,97977.19
2023-11-04T01:17:56.181Z,97987.28
2023-11-04T01:20:23.855Z,97983.22
2023-11-04T01:22:51.625Z,97994.50
2023-11-04T01:25:19.109Z,98009.84
2023-11-04T01:27:46.708Z,98009.16
2023-11-04T01:30:17.041Z,98004.91
2023-11-04T01:32:44.767Z,98007.13
2023-11-04T01:35:12.449Z,98014.25
2023-11-04T01:37:40.055Z,98021.47
2023-11-04T01:40:12.425Z,98011.13
2023-11-04T01:42:43.464Z,98014.34
2023-11-04T01:45:11.171Z,98013.31
2023-11-04T01:47:40.355Z,98012.59
2023-11-04T01:50:09.822Z,98021.53
2023-11-04T01:52:39.208Z,98028.38
2023-11-04T01:55:09.684Z,98035.88
2023-11-04T01:57:38.101Z,98043.75
2023-11-04T02:00:06.905Z,98058.81
2023-11-04T02:02:43.222Z,98056.84
2023-11-04T02:05:12.032Z,98066.63
2023-11-04T02:07:39.634Z,98082.28
2023-11-04T02:10:08.079Z,98077.84
2023-11-04T02:12:36.167Z,98076.94
2023-11-04T02:15:03.899Z,98084.16
2023-11-04T02:17:31.568Z,98093.91
2023-11-04T02:20:02.390Z,98097.47
2023-11-04T02:22:31.546Z,98098.41
2023-11-04T02:24:59.246Z,98108.16
2023-11-04T02:27:27.353Z,98118.22
2023-11-04T02:29:54.938Z,98120.06
2023-11-04T02:32:22.909Z,98132.28
2023-11-04T02:34:50.470Z,98126.09
2023-11-04T02:37:18.122Z,98144.34
2023-11-04T02:39:47.161Z,98148.22
2023-11-04T02:42:14.763Z,98144.34
2023-11-04T02:44:42.362Z,98157.38
2023-11-04T02:47:09.951Z,98169.13
2023-11-04T02:49:37.412Z,98170.31
2023-11-04T02:52:09.402Z,98177.03
2023-11-04T02:54:39.032Z,98181.56
2023-11-04T02:57:08.030Z,98182.13
2023-11-04T02:59:36.622Z,98191.19
2023-11-04T03:02:05.085Z,98203.25
2023-11-04T03:04:32.698Z,98196.25
2023-11-04T03:07:00.283Z,98197.91
2023-11-04T03:09:27.867Z,98199.44
2023-11-04T03:11:55.438Z,98214.13
2023-11-04T03:14:24.460Z,98225.00
2023-11-04T03:16:53.254Z,98222.47
2023-11-04T03:19:20.890Z,98234.56
2023-11-04T03:21:48.490Z,98235.72
2023-11-04T03:24:16.196Z,98230.38
2023-11-04T03:26:44.777Z,98236.88
2023-11-04T03:29:12.818Z,98253.78
2023-11-04T03:31:42.070Z,98256.97
2023-11-04T03:34:10.832Z,98255.09
2023-11-04T03:36:39.040Z,98257.63
2023-11-04T03:39:06.497Z,98253.94
2023-11-04T03:41:35.192Z,98254.28
2023-11-04T03:44:03.264Z,98263.78
2023-11-04T03:46:30.738Z,98270.50
2023-11-04T03:49:00.879Z,98273.00
2023-11-04T03:51:29.053Z,98274.16
2023-11-04T03:53:56.763Z,98277.34
2023-11-04T03:56:25.424Z,98281.84
2023-11-04T03:58:53.442Z,98293.41
2023-11-04T04:01:20.953Z,98296.09
2023-11-04T04:03:49.642Z,98281.84
2023-11-04T04:06:19.264Z,98284.22
2023-11-04T04:08:47.165Z,98298.75
2023-11-04T04:11:15.270Z,98301.59
2023-11-04T04:13:43.324Z,98310.13
2023-11-04T04:16:11.696Z,98321.84
2023-11-04T04:18:39.323Z,98325.66
2023-11-04T04:21:07.581Z,98321.84
2023-11-04T04:23:36.578Z,98334.34
2023-11-04T04:26:05.217Z,98337.88
2023-11-04T04:28:32.645Z,98345.06
2023-11-04T04:31:01.158Z,98353.28
2023-11-04T04:33:29.825Z,98356.25
2023-11-04T04:35:57.298Z,98357.28
2023-11-04T04:38:25.484Z,98362.78
2023-11-04T04:40:55.514Z,98376.34
2023-11-04T04:43:23.538Z,98378.00
2023-11-04T04:45:51.000Z,98379.69
2023-11-04T04:48:19.672Z,98390.88
2023-11-04T04:50:47.687Z,98395.72
2023-11-04T04:53:15.177Z,98394.41
2023-11-04T04:55:42.838Z,98393.41
2023-11-04T04:58:11.960Z,98405.09
2023-11-04T05:00:39.640Z,98417.78
2023-11-04T05:03:07.193Z,98425.50
2023-11-04T05:05:35.365Z,98428.16
2023-11-04T05:08:04.066Z,98429.50
2023-11-04T05:10:31.540Z,98428.16
2023-11-04T05:12:59.579Z,98448.72
2023-11-04T05:15:28.707Z,98441.25
2023-11-04T05:17:56.194Z,98449.22
2023-11-04T05:20:23.823Z,98440.84
2023-11-04T05:22:51.572Z,98447.06
2023-11-04T05:25:19.027Z,98456.91
2023-11-04T05:27:46.553Z,98456.91
2023-11-04T05:30:14.991Z,98454.91
2023-11-04T05:32:43.996Z,98463.63
2023-11-04T05:35:12.040Z,98466.44
2023-11-04T05:37:40.082Z,98472.56
2023-11-04T05:40:09.176Z,98477.28
2023-11-04T05:42:37.323Z,98479.50
2023-11-04T05:45:06.128Z,98480.94
2023-11-04T05:47:34.222Z,98482.47
2023-11-04T05:50:04.111Z,98481.31
2023-11-04T05:52:32.710Z,98476.13
2023-11-04T05:55:00.325Z,98481.47
2023-11-04T05:57:29.226Z,98493.41
2023-11-04T05:59:57.471Z,98500.75
2023-11-04T06:02:24.939Z,98498.56
2023-11-04T06:04:52.602Z,98499.88
2023-11-04T06:07:22.308Z,98514.59
2023-11-04T06:09:49.837Z,98510.75
2023-11-04T06:12:17.367Z,98519.44
2023-11-04T06:14:46.569Z,98526.78
2023-11-04T06:17:14.016Z,98524.13
2023-11-04T06:19:41.676Z,98519.63
2023-11-04T06:22:09.339Z,98532.78
2023-11-04T06:24:39.791Z,98525.88
2023-11-04T06:27:08.020Z,98533.41
2023-11-04T06:29:36.678Z,98541.09
2023-11-04T06:32:05.061Z,98543.63
2023-11-04T06:34:32.598Z,98547.97
2023-11-04T06:37:01.269Z,98545.44
2023-11-04T06:39:29.313Z,98548.78
2023-11-04T06:41:58.215Z,98539.78
2023-11-04T06:44:26.811Z,98541.84
2023-11-04T06:46:54.905Z,98538.94
2023-11-04T06:49:22.499Z,98535.41
2023-11-04T06:51:50.240Z,98557.66
2023-11-04T06:54:17.892Z,98561.19
2023-11-04T06:56:45.458Z,98562.34
2023-11-04T06:59:16.158Z,98558.00
2023-11-04T07:01:49.084Z,98572.66
2023-11-04T07:04:16.668Z,98574.56
2023-11-04T07:06:44.316Z,98572.19
2023-11-04T07:09:12.495Z,98571.53
2023-11-04T07:11:40.621Z,98583.75
2023-11-04T07:14:08.726Z,98589.75
2023-11-04T07:16:38.349Z,98585.75
2023-11-04T07:19:06.222Z,98571.53
2023-11-04T07:21:33.954Z,98590.25
2023-11-04T07:24:01.593Z,98605.97
2023-11-04T07:26:29.696Z,98591.09
2023-11-04T07:28:57.826Z,98604.63
2023-11-04T07:31:25.904Z,98606.25
2023-11-04T07:33:55.838Z,98607.25
2023-11-04T07:36:24.714Z,98608.09
2023-11-04T07:38:53.065Z,98603.91
2023-11-04T07:41:21.349Z,98604.75
2023-11-04T07:43:49.552Z,98608.25
2023-11-04T07:46:17.777Z,98611.44
2023-11-04T07:48:45.563Z,98610.59
2023-11-04T07:51:14.722Z,98610.59
2023-11-04T07:53:42.847Z,98602.41
2023-11-04T07:56:11.641Z,98612.97
2023-11-04T07:58:39.278Z,98615.47
2023-11-04T08:01:07.201Z,98608.28
2023-11-04T08:03:36.125Z,98609.59
2023-11-04T08:06:03.789Z,98629.50
2023-11-04T08:08:33.431Z,98632.50
2023-11-04T08:11:02.163Z,98635.03
2023-11-04T08:13:29.725Z,98635.34
2023-11-04T08:15:58.295Z,98632.34
2023-11-04T08:18:26.159Z,98632.34
2023-11-04T08:20:53.747Z,98629.34
2023-11-04T08:23:21.330Z,98638.00
2023-11-04T08:25:51.013Z,98638.00
2023-11-04T08:28:19.176Z,98638.53
2023-11-04T08:30:46.722Z,98630.69
2023-11-04T08:33:15.600Z,98638.84
2023-11-04T08:35:43.726Z,98643.22
2023-11-04T08:38:11.260Z,98635.34
2023-11-04T08:40:39.937Z,98650.22
2023-11-04T08:43:09.588Z,98635.84
2023-11-04T08:45:37.209Z,98643.25
2023-11-04T08:48:05.792Z,98647.09
2023-11-04T08:50:33.974Z,98649.41
2023-11-04T08:53:01.480Z,98645.25
2023-11-04T08:55:29.155Z,98653.56
2023-11-04T08:57:56.876Z,98666.47
2023-11-04T09:00:25.900Z,98661.47
2023-11-04T09:02:53.583Z,98671.34
2023-11-04T09:05:28.556Z,98671.34
2023-11-04T09:08:00.620Z,98682.31
2023-11-04T09:10:28.163Z,98683.78
2023-11-04T09:12:55.842Z,98686.16
2023-11-04T09:15:25.838Z,98688.16
2023-11-04T09:17:53.500Z,98690.34
2023-11-04T09:20:21.229Z,98698.56
2023-11-04T09:22:49.091Z,98701.56
2023-11-04T09:25:16.685Z,98706.25
2023-11-04T09:27:44.313Z,98705.56
2023-11-04T09:30:13.585Z,98709.25
2023-11-04T09:32:42.605Z,98712.41
2023-11-04T09:35:10.539Z,98711.59
2023-11-04T09:37:38.817Z,98712.84
2023-11-04T09:40:07.472Z,98712.31
2023-11-04T09:42:36.265Z,98710.47
2023-11-04T09:45:05.476Z,98727.19
2023-11-04T09:47:33.408Z,98722.03
2023-11-04T09:50:02.475Z,98722.84
2023-11-04T09:52:32.820Z,98728.91
2023-11-04T09:55:00.860Z,98720.91
2023-11-04T09:57:30.165Z,98729.78
2023-11-04T10:00:00.369Z,98735.28
2023-11-04T10:02:27.915Z,98743.25
2023-11-04T10:04:55.471Z,98741.28
2023-11-04T10:07:25.873Z,98738.22
2023-11-04T10:09:54.235Z,98729.03
2023-11-04T10:12:21.893Z,98733.53
2023-11-04T10:14:49.621Z,98740.75
2023-11-04T10:17:17.431Z,98732.53
2023-11-04T10:19:45.029Z,98737.44
2023-11-04T10:22:12.904Z,98741.28
2023-11-04T10:24:42.096Z,98742.78
2023-11-04T10:27:09.614Z,98756.16
2023-11-04T10:29:37.782Z,98751.13
2023-11-04T10:32:08.183Z,98750.91
2023-11-04T10:34:38.072Z,98754.66
2023-11-04T10:37:14.679Z,98752.25
2023-11-04T10:39:48.758Z,98746.22
2023-11-04T10:42:19.317Z,98748.91
2023-11-04T10:44:49.015Z,98753.44
2023-11-04T10:47:22.289Z,98757.25
2023-11-04T10:49:57.796Z,98756.25
2023-11-04T10:52:27.752Z,98758.69
2023-11-04T10:55:05.471Z,98766.69
2023-11-04T10:57:37.840Z,98774.66
2023-11-04T11:00:09.461Z,98769.16
2023-11-04T11:02:39.828Z,98767.63
2023-11-04T11:05:11.123Z,98766.94
2023-11-04T11:07:40.100Z,98759.75
2023-11-04T11:10:10.426Z,98768.63
2023-11-04T11:12:46.356Z,98760.06
2023-11-04T11:15:14.245Z,98766.41
2023-11-04T11:17:41.838Z,98754.19
2023-11-04T11:20:27.306Z,98756.38
2023-11-04T11:22:56.263Z,98766.94
2023-11-04T11:25:32.219Z,98769.97
2023-11-04T11:28:00.905Z,98776.03
2023-11-04T11:30:38.269Z,98770.84
2023-11-04T11:33:07.587Z,98763.41
2023-11-04T11:35:53.630Z,98768.00
2023-11-04T11:38:22.072Z,98779.38
2023-11-04T11:40:52.902Z,98779.19
2023-11-04T11:43:22.050Z,98775.78
2023-11-04T11:45:50.206Z,98769.16
2023-11-04T11:48:18.156Z,98771.16
2023-11-04T11:50:47.570Z,98767.31
2023-11-04T11:53:16.539Z,98769.31
2023-11-04T11:55:44.098Z,98774.03
2023-11-04T11:58:14.296Z,98774.50
2023-11-04T12:00:43.054Z,98781.84
2023-11-04T12:03:10.757Z,98782.00
2023-11-04T12:05:39.555Z,98790.00
2023-11-04T12:08:07.650Z,98774.81
2023-11-04T12:10:35.729Z,98780.09
2023-11-04T12:13:03.445Z,98776.84
2023-11-04T12:15:32.553Z,98785.19
2023-11-04T12:18:00.307Z,98775.03
2023-11-04T12:20:29.226Z,98774.03
2023-11-04T12:22:57.790Z,98775.31
2023-11-04T12:25:26.852Z,98781.00
2023-11-04T12:27:54.769Z,98784.34
2023-11-04T12:30:22.360Z,98789.47
2023-11-04T12:32:52.096Z,98794.16
2023-11-04T12:35:19.426Z,98806.06
2023-11-04T12:37:48.672Z,98801.84
2023-11-04T12:40:16.387Z,98800.84
2023-11-04T12:42:46.750Z,98792.59
2023-11-04T12:45:15.715Z,98783.22
2023-11-04T12:47:43.795Z,98781.38
2023-11-04T12:50:14.214Z,98786.91
2023-11-04T12:52:45.219Z,98789.25
2023-11-04T12:55:13.226Z,98791.25
2023-11-04T12:57:41.439Z,98800.94
2023-11-04T13:00:10.594Z,98795.59
2023-11-04T13:02:38.634Z,98800.53
2023-11-04T13:05:08.084Z,98803.94
2023-11-04T13:07:37.834Z,98804.75
2023-11-04T13:10:06.348Z,98797.41
2023-11-04T13:12:34.277Z,98801.31
2023-11-04T13:15:02.011Z,98798.84
2023-11-04T13:17:29.649Z,98801.22
2023-11-04T13:19:57.363Z,98798.09
2023-11-04T13:22:25.037Z,98795.81
2023-11-04T13:24:54.043Z,98786.63
2023-11-04T13:27:21.717Z,98781.28
2023-11-04T13:29:49.478Z,98787.34
2023-11-04T13:32:17.071Z,98789.72
2023-11-04T13:34:45.843Z,98785.03
2023-11-04T13:37:14.038Z,98791.94
2023-11-04T13:39:41.631Z,98800.78
2023-11-04T13:42:11.794Z,98811.19
2023-11-04T13:44:40.008Z,98802.31
2023-11-04T13:47:07.884Z,98797.94
2023-11-04T13:49:36.193Z,98792.59
2023-11-04T13:52:04.401Z,98798.94
2023-11-04T13:54:32.160Z,98804.97
2023-11-04T13:57:00.073Z,98810.19
2023-11-04T13:59:29.275Z,98815.38
2023-11-04T14:01:57.053Z,98805.84
2023-11-04T14:04:25.963Z,98812.84
2023-11-04T14:06:53.544Z,98819.19
2023-11-04T14:09:21.633Z,98807.13
2023-11-04T14:11:50.481Z,98810.31
2023-11-04T14:14:18.096Z,98822.69
2023-11-04T14:16:47.667Z,98815.53
2023-11-04T14:19:15.354Z,98821.56
2023-11-04T14:21:44.202Z,98840.72
2023-11-04T14:24:11.847Z,98844.81
2023-11-04T14:26:39.972Z,98822.69
2023-11-04T14:29:08.100Z,98820.41
2023-11-04T14:31:36.207Z,98830.56
2023-11-04T14:34:05.860Z,98833.94
2023-11-04T14:36:33.970Z,98840.41
2023-11-04T14:39:02.070Z,98851.97
2023-11-04T14:41:30.784Z,98846.75
2023-11-04T14:43:58.365Z,98842.41
2023-11-04T14:46:26.480Z,98851.28
2023-11-04T14:48:54.241Z,98850.28
2023-11-04T14:51:24.377Z,98857.19
2023-11-04T14:53:52.908Z,98856.72
2023-11-04T14:56:20.543Z,98853.09
2023-11-04T14:58:48.219Z,98854.88
2023-11-04T15:01:15.868Z,98862.34
2023-11-04T15:03:43.636Z,98865.34
2023-11-04T15:06:11.447Z,98868.00
2023-11-04T15:08:40.526Z,98865.34
2023-11-04T15:11:08.633Z,98851.28
2023-11-04T15:13:36.834Z,98849.75
2023-11-04T15:16:06.021Z,98855.09
2023-11-04T15:18:33.849Z,98850.06
2023-11-04T15:21:01.491Z,98850.88
2023-11-04T15:23:29.268Z,98845.72
2023-11-04T15:25:58.863Z,98856.22
2023-11-04T15:28:27.063Z,98854.09
2023-11-04T15:30:55.533Z,98856.41
2023-11-04T15:33:23.678Z,98847.84
2023-11-04T15:35:51.887Z,98835.16
2023-11-04T15:38:20.310Z,98829.66
2023-11-04T15:40:48.467Z,98836.28
2023-11-04T15:43:18.280Z,98834.16
2023-11-04T15:45:46.032Z,98841.34
2023-11-04T15:48:14.128Z,98838.97
2023-11-04T15:50:42.277Z,98839.66
2023-11-04T15:53:10.410Z,98847.16
2023-11-04T15:55:38.128Z,98843.31
2023-11-04T15:58:05.893Z,98841.63
2023-11-04T16:00:35.015Z,98820.25
2023-11-04T16:03:02.806Z,98811.69
2023-11-04T16:05:30.486Z,98822.25
2023-11-04T16:07:58.144Z,98830.13
2023-11-04T16:10:26.012Z,98824.06
2023-11-04T16:12:53.815Z,98825.78
2023-11-04T16:15:22.126Z,98830.94
2023-11-04T16:17:51.217Z,98824.78
2023-11-04T16:20:18.913Z,98817.75
2023-11-04T16:22:46.647Z,98818.56
2023-11-04T16:25:14.588Z,98821.38
2023-11-04T16:27:42.614Z,98825.06
2023-11-04T16:30:11.671Z,98827.50
2023-11-04T16:32:39.349Z,98839.41
2023-11-04T16:35:09.113Z,98840.41
2023-11-04T16:37:36.374Z,98843.94
2023-11-04T16:40:04.938Z,98854.78
2023-11-04T16:42:32.666Z,98842.09
2023-11-04T16:45:00.820Z,98837.75
2023-11-04T16:47:28.590Z,98843.22
2023-11-04T16:49:56.259Z,98838.88
2023-11-04T16:52:25.245Z,98851.78
2023-11-04T16:54:54.022Z,98857.31
2023-11-04T16:57:22.090Z,98854.63
2023-11-04T16:59:50.213Z,98854.63
2023-11-04T17:02:18.946Z,98855.19
2023-11-04T17:04:46.696Z,98866.31
2023-11-04T17:07:14.924Z,98865.91
2023-11-04T17:09:44.201Z,98869.69
2023-11-04T17:12:11.728Z,98865.31
2023-11-04T17:14:39.298Z,98859.25
2023-11-04T17:17:06.979Z,98859.25
2023-11-04T17:19:35.081Z,98859.97
2023-11-04T17:22:03.032Z,98861.94
2023-11-04T17:24:31.279Z,98857.59
2023-11-04T17:27:00.260Z,98859.97
2023-11-04T17:29:28.417Z,98854.91
2023-11-04T17:31:58.377Z,98862.66
2023-11-04T17:34:26.301Z,98861.13
2023-11-04T17:36:54.601Z,98859.56
2023-11-04T17:39:23.660Z,98866.75
2023-11-04T17:41:51.306Z,98869.44
2023-11-04T17:44:21.105Z,98866.47
2023-11-04T17:46:49.842Z,98868.13
2023-11-04T17:49:17.448Z,98858.56
2023-11-04T17:51:45.566Z,98852.25
2023-11-04T17:54:14.318Z,98855.75
2023-11-04T17:56:41.844Z,98855.91
2023-11-04T17:59:10.549Z,98853.22
2023-11-04T18:01:40.660Z,98861.94
2023-11-04T18:04:08.300Z,98867.28
2023-11-04T18:06:35.920Z,98879.81
2023-11-04T18:09:04.771Z,98896.00
2023-11-04T18:11:32.329Z,98898.66
2023-11-04T18:14:00.499Z,98898.66
2023-11-04T18:16:28.776Z,98899.66
2023-11-04T18:18:57.948Z,98904.19
2023-11-04T18:21:25.698Z,98907.53
2023-11-04T18:23:54.411Z,98909.97
2023-11-04T18:26:22.574Z,98908.25
2023-11-04T18:28:50.081Z,98901.97
2023-11-04T18:31:17.867Z,98890.28
2023-11-04T18:33:45.621Z,98887.75
2023-11-04T18:36:14.681Z,98889.41
2023-11-04T18:38:43.422Z,98881.72
2023-11-04T18:41:11.570Z,98877.34
2023-11-04T18:43:39.067Z,98882.25
2023-11-04T18:46:08.147Z,98889.88
2023-11-04T18:48:36.461Z,98881.47
2023-11-04T18:51:05.183Z,98886.38
2023-11-04T18:53:34.298Z,98889.72
2023-11-04T18:56:01.961Z,98895.06
2023-11-04T18:58:29.776Z,98890.00
2023-11-04T19:00:58.031Z,98905.91
2023-11-04T19:03:25.661Z,98906.59
2023-11-04T19:05:53.768Z,98895.22
2023-11-04T19:08:22.483Z,98896.34
2023-11-04T19:10:51.538Z,98911.25
2023-11-04T19:13:19.302Z,98907.03
2023-11-04T19:15:47.187Z,98916.03
2023-11-04T19:18:14.891Z,98914.06
2023-11-04T19:20:42.525Z,98915.22
2023-11-04T19:23:10.195Z,98920.41
2023-11-04T19:25:37.872Z,98912.81
2023-11-04T19:28:07.797Z,98927.03
2023-11-04T19:30:36.071Z,98927.84
2023-11-04T19:33:04.001Z,98939.69
2023-11-04T19:35:31.818Z,98954.59
2023-11-04T19:38:00.586Z,98947.56
2023-11-04T19:40:28.804Z,98957.41
2023-11-04T19:42:56.334Z,98953.88
2023-11-04T19:45:26.520Z,98952.22
2023-11-04T19:47:55.091Z,98969.22
2023-11-04T19:50:23.440Z,98980.63
2023-11-04T19:52:51.536Z,98976.25
2023-11-04T19:55:19.746Z,98988.94
2023-11-04T19:57:48.590Z,98984.41
2023-11-04T20:00:16.951Z,98987.25
2023-11-04T20:02:46.134Z,98976.84
2023-11-04T20:05:14.034Z,98981.34
2023-11-04T20:07:41.791Z,98985.56
2023-11-04T20:10:09.800Z,98987.53
2023-11-04T20:12:37.432Z,98973.19
2023-11-04T20:15:05.829Z,98976.56
2023-11-04T20:17:33.470Z,98985.56
2023-11-04T20:20:02.544Z,98990.19
2023-11-04T20:22:30.267Z,98983.03
2023-11-04T20:24:58.143Z,98985.56
2023-11-04T20:27:26.309Z,98993.84
2023-11-04T20:29:55.072Z,98998.22
2023-11-04T20:32:22.616Z,99001.88
2023-11-04T20:34:50.861Z,99016.22
2023-11-04T20:37:20.560Z,99004.53
2023-11-04T20:39:48.088Z,99007.50
2023-11-04T20:42:15.736Z,99014.41
2023-11-04T20:44:43.694Z,99010.88
2023-11-04T20:47:11.226Z,99003.97
2023-11-04T20:49:39.336Z,99016.38
2023-11-04T20:52:07.253Z,99013.72
2023-11-04T20:54:36.276Z,99020.00
2023-11-04T20:57:04.272Z,99013.84
2023-11-04T20:59:32.439Z,99025.34
2023-11-04T21:01:59.975Z,99026.34
2023-11-04T21:04:28.224Z,99006.13
2023-11-04T21:06:57.132Z,99020.00
2023-11-04T21:09:24.714Z,99020.19
2023-11-04T21:11:54.283Z,99032.84
2023-11-04T21:14:23.171Z,99029.19
2023-11-04T21:16:50.727Z,99024.81
2023-11-04T21:19:18.339Z,99025.66
2023-11-04T21:21:46.069Z,99023.84
2023-11-04T21:24:13.578Z,99030.31
2023-11-04T21:26:41.690Z,99033.53
2023-11-04T21:29:11.869Z,99029.19
2023-11-04T21:31:39.422Z,99030.00
2023-11-04T21:34:06.962Z,99030.88
2023-11-04T21:36:35.700Z,99043.78
2023-11-04T21:39:03.235Z,99041.81
2023-11-04T21:41:31.498Z,99049.13
2023-11-04T21:44:00.377Z,99052.38
2023-11-04T21:46:29.434Z,99051.69
2023-11-04T21:48:57.220Z,99063.47
2023-11-04T21:51:25.004Z,99062.50
2023-11-04T21:53:52.568Z,99063.34
2023-11-04T21:56:20.693Z,99059.00
2023-11-04T21:58:48.625Z,99071.38
2023-11-04T22:01:16.163Z,99070.66
2023-11-04T22:03:45.297Z,99077.97
2023-11-04T22:06:13.746Z,99082.19
2023-11-04T22:08:42.780Z,99087.81
2023-11-04T22:11:12.082Z,99089.50
2023-11-04T22:13:40.769Z,99093.00
2023-11-04T22:16:08.591Z,99105.41
2023-11-04T22:18:36.814Z,99104.53
2023-11-04T22:21:06.732Z,99109.88
2023-11-04T22:23:33.872Z,99104.53
2023-11-04T22:26:01.454Z,99119.88
2023-11-04T22:28:29.265Z,99117.19
2023-11-04T22:30:56.844Z,99117.19
2023-11-04T22:33:24.495Z,99114.53
2023-11-04T22:35:52.380Z,99125.22
2023-11-04T22:38:21.457Z,99126.22
2023-11-04T22:40:49.631Z,99125.47
2023-11-04T22:43:19.014Z,99131.81
2023-11-04T22:45:46.546Z,99133.38
2023-11-04T22:48:14.354Z,99135.47
2023-11-04T22:50:42.167Z,99134.34
2023-11-04T22:53:09.692Z,99132.78
2023-11-04T22:55:40.193Z,99139.69
2023-11-04T22:58:09.048Z,99136.88
2023-11-04T23:00:36.616Z,99139.00
2023-11-04T23:03:04.422Z,99142.06
2023-11-04T23:05:32.988Z,99144.19
2023-11-04T23:08:00.730Z,99136.16
2023-11-04T23:10:29.137Z,99134.22
2023-11-04T23:12:59.420Z,99138.84
2023-11-04T23:15:26.666Z,99141.50
2023-11-04T23:17:55.756Z,99142.22
2023-11-04T23:20:23.823Z,99144.19
2023-11-04T23:22:51.826Z,99149.97
2023-11-04T23:25:21.944Z,99146.72
2023-11-04T23:27:51.541Z,99151.94
2023-11-04T23:30:21.522Z,99151.78
2023-11-04T23:32:49.313Z,99146.59
2023-11-04T23:35:17.241Z,99155.28
2023-11-04T23:37:45.452Z,99152.75
2023-11-04T23:40:13.902Z,99153.63
2023-11-04T23:42:41.520Z,99156.97
2023-11-04T23:45:09.885Z,99159.53
2023-11-04T23:47:39.030Z,99168.66
2023-11-04T23:50:08.179Z,99160.50
2023-11-04T23:52:35.865Z,99165.84
2023-11-04T23:55:04.444Z,99168.66
2023-11-04T23:57:33.325Z,99165.13
